createdAt,value
2022-10-28T00:03:02.215Z,1.97
2022-10-28T00:08:04.509Z,1.70
2022-10-28T00:13:06.686Z,2.13
2022-10-28T00:18:08.896Z,1.60
2022-10-28T00:23:11.043Z,1.90
2022-10-28T00:28:13.250Z,1.50
2022-10-28T00:33:15.383Z,1.45
2022-10-28T00:38:17.482Z,1.40
2022-10-28T00:43:44.103Z,1.25
2022-10-28T00:48:49.823Z,1.50
2022-10-28T00:53:54.311Z,1.73
2022-10-28T00:58:59.113Z,1.20
2022-10-28T01:09:05.084Z,1.70
2022-10-28T01:14:21.700Z,1.52
2022-10-28T01:19:54.712Z,1.60
2022-10-28T01:25:05.427Z,1.83
2022-10-28T01:30:14.912Z,1.27
2022-10-28T01:35:39.404Z,1.67
2022-10-28T01:41:35.905Z,1.50
2022-10-28T01:46:41.943Z,1.70
2022-10-28T01:51:48.672Z,1.50
2022-10-28T01:56:53.243Z,2.45
2022-10-28T02:01:56.351Z,1.70
2022-10-28T02:07:00.819Z,1.80
2022-10-28T02:12:23.842Z,1.95
2022-10-28T02:17:41.268Z,1.90
2022-10-28T02:22:51.504Z,1.75
2022-10-28T02:28:15.281Z,2.58
2022-10-28T02:33:25.361Z,1.98
2022-10-28T02:38:36.109Z,2.00
2022-10-28T02:43:39.132Z,2.17
2022-10-28T02:48:55.157Z,2.38
2022-10-28T02:59:19.685Z,2.30
2022-10-28T03:04:22.016Z,2.50
2022-10-28T03:09:24.255Z,2.53
2022-10-28T03:14:26.942Z,2.40
2022-10-28T03:19:29.251Z,2.72
2022-10-28T03:24:31.549Z,2.55
2022-10-28T03:29:33.695Z,2.08
2022-10-28T03:34:35.783Z,1.90
2022-10-28T03:39:37.948Z,2.00
2022-10-28T03:44:40.052Z,2.10
2022-10-28T03:49:42.131Z,2.13
2022-10-28T03:54:44.284Z,1.73
2022-10-28T03:59:46.413Z,2.08
2022-10-28T04:04:48.611Z,2.17
2022-10-28T04:09:51.539Z,2.05
2022-10-28T04:14:53.711Z,2.08
2022-10-28T04:19:55.916Z,2.35
2022-10-28T04:24:58.054Z,1.80
2022-10-28T04:30:00.196Z,2.55
2022-10-28T04:35:02.400Z,1.83
2022-10-28T04:40:06.085Z,2.22
2022-10-28T04:45:09.053Z,1.85
2022-10-28T04:50:11.126Z,2.00
2022-10-28T04:55:13.211Z,2.00
2022-10-28T05:00:15.518Z,2.70
2022-10-28T05:05:18.279Z,2.20
2022-10-28T05:10:20.593Z,2.03
2022-10-28T05:15:22.852Z,2.15
2022-10-28T05:20:24.947Z,2.00
2022-10-28T05:25:27.389Z,1.98
2022-10-28T05:30:29.735Z,1.73
2022-10-28T05:35:32.207Z,1.75
2022-10-28T05:40:34.412Z,1.48
2022-10-28T05:45:36.908Z,1.90
2022-10-28T05:50:39.021Z,1.52
2022-10-28T05:55:45.229Z,1.55
2022-10-28T06:00:49.903Z,1.75
2022-10-28T06:05:52.334Z,1.42
2022-10-28T06:10:53.679Z,1.63
2022-10-28T06:15:56.354Z,1.70
2022-10-28T06:20:58.756Z,1.35
2022-10-28T06:26:02.933Z,2.17
2022-10-28T06:31:07.743Z,1.73
2022-10-28T06:36:09.873Z,2.08
2022-10-28T06:41:11.977Z,1.90
2022-10-28T06:46:14.145Z,1.52
2022-10-28T06:51:17.937Z,1.08
2022-10-28T06:56:20.032Z,0.93
2022-10-28T07:01:22.711Z,0.82
2022-10-28T07:06:24.911Z,1.00
2022-10-28T07:11:27.168Z,1.60
2022-10-28T07:16:29.382Z,1.17
2022-10-28T07:21:31.507Z,1.27
2022-10-28T07:26:33.560Z,1.10
2022-10-28T07:31:35.698Z,1.10
2022-10-28T07:36:37.762Z,1.13
2022-10-28T07:41:39.818Z,1.17
2022-10-28T07:46:42.026Z,1.02
2022-10-28T07:51:44.121Z,1.30
2022-10-28T07:56:46.354Z,0.95
2022-10-28T08:01:48.487Z,1.10
2022-10-28T08:06:50.810Z,1.42
2022-10-28T08:11:56.075Z,1.10
2022-10-28T08:16:58.214Z,1.10
2022-10-28T08:22:00.422Z,1.00
2022-10-28T08:27:02.566Z,1.42
2022-10-28T08:32:07.505Z,0.88
2022-10-28T08:37:09.815Z,1.30
2022-10-28T08:42:36.194Z,1.83
2022-10-28T08:52:58.829Z,1.25
2022-10-28T08:58:28.789Z,1.42
2022-10-28T09:03:39.995Z,1.35
2022-10-28T09:08:45.550Z,1.27
2022-10-28T09:13:56.445Z,1.17
2022-10-28T09:19:04.162Z,1.35
2022-10-28T09:24:25.846Z,1.30
2022-10-28T09:29:50.415Z,1.52
2022-10-28T09:35:16.267Z,1.50
2022-10-28T09:40:25.042Z,1.60
2022-10-28T09:45:31.019Z,1.50
2022-10-28T09:50:33.734Z,1.75
2022-10-28T09:55:36.315Z,1.88
2022-10-28T10:00:39.199Z,1.30
2022-10-28T10:05:50.657Z,1.42
2022-10-28T10:10:58.380Z,1.45
2022-10-28T10:16:06.841Z,1.30
2022-10-28T10:21:09.154Z,1.75
2022-10-28T10:26:16.409Z,1.48
2022-10-28T10:31:25.521Z,0.95
2022-10-28T10:36:31.402Z,1.35
2022-10-28T10:41:35.762Z,1.42
2022-10-28T10:46:37.854Z,1.30
2022-10-28T10:51:50.680Z,1.50
2022-10-28T10:56:52.904Z,1.10
2022-10-28T11:01:56.635Z,1.33
2022-10-28T11:06:58.931Z,1.20
2022-10-28T11:12:01.545Z,1.83
2022-10-28T11:17:03.787Z,1.02
2022-10-28T11:28:23.252Z,0.90
2022-10-28T11:33:35.056Z,1.38
2022-10-28T11:39:06.025Z,1.80
2022-10-28T11:44:34.891Z,1.33
2022-10-28T11:50:14.126Z,1.10
2022-10-28T11:55:22.297Z,1.58
2022-10-28T12:00:33.464Z,1.10
2022-10-28T12:05:35.566Z,1.00
2022-10-28T12:11:05.718Z,1.20
2022-10-28T12:16:43.826Z,0.80
2022-10-28T12:21:57.638Z,1.00
2022-10-28T12:27:05.791Z,1.10
2022-10-28T12:32:12.205Z,0.90
2022-10-28T12:37:18.849Z,0.90
2022-10-28T12:42:37.159Z,1.05
2022-10-28T12:47:43.436Z,1.10
2022-10-28T12:53:15.988Z,1.25
2022-10-28T12:58:39.718Z,1.10
2022-10-28T13:03:41.957Z,1.20
2022-10-28T13:09:01.795Z,1.10
2022-10-28T13:14:24.805Z,1.10
2022-10-28T13:19:57.124Z,1.20
2022-10-28T13:25:26.743Z,1.30
2022-10-28T13:30:32.114Z,1.50
2022-10-28T13:35:34.726Z,1.10
2022-10-28T13:40:36.761Z,1.38
2022-10-28T13:45:53.168Z,0.82
2022-10-28T13:51:10.537Z,0.80
2022-10-28T13:56:27.873Z,1.00
2022-10-28T14:01:39.215Z,1.00
2022-10-28T14:06:41.476Z,0.70
2022-10-28T14:11:43.751Z,0.80
2022-10-28T14:16:46.048Z,0.80
2022-10-28T14:22:08.691Z,0.85
2022-10-28T14:27:27.568Z,1.10
2022-10-28T14:32:33.199Z,1.08
2022-10-28T14:38:08.467Z,1.02
2022-10-28T14:43:39.570Z,1.15
2022-10-28T14:48:53.793Z,1.00
2022-10-28T14:54:01.687Z,1.20
2022-10-28T14:59:31.117Z,0.90
2022-10-28T15:04:33.510Z,1.20
2022-10-28T15:09:36.300Z,1.15
2022-10-28T15:14:47.093Z,0.77
2022-10-28T15:19:55.354Z,1.20
2022-10-28T15:25:00.068Z,1.10
2022-10-28T15:30:04.292Z,0.85
2022-10-28T15:35:38.216Z,1.20
2022-10-28T15:40:40.414Z,0.75
2022-10-28T15:45:42.921Z,0.75
2022-10-28T15:50:45.269Z,1.38
2022-10-28T15:56:06.639Z,1.38
2022-10-28T16:01:30.441Z,1.23
2022-10-28T16:06:37.385Z,0.90
2022-10-28T16:11:50.009Z,1.45
2022-10-28T16:16:52.534Z,1.10
2022-10-28T16:21:55.078Z,1.17
2022-10-28T16:27:22.864Z,0.80
2022-10-28T16:32:39.644Z,1.02
2022-10-28T16:37:44.714Z,1.10
2022-10-28T16:42:47.967Z,0.60
2022-10-28T16:47:50.150Z,0.95
2022-10-28T16:52:54.367Z,0.77
2022-10-28T16:57:56.918Z,1.10
2022-10-28T17:03:00.119Z,1.10
2022-10-28T17:08:05.946Z,1.25
2022-10-28T17:13:16.117Z,1.85
2022-10-28T17:18:18.276Z,1.20
2022-10-28T17:23:20.430Z,1.10
2022-10-28T17:28:22.545Z,1.30
2022-10-28T17:33:24.602Z,1.20
2022-10-28T17:38:26.638Z,1.30
2022-10-28T17:43:29.288Z,1.10
2022-10-28T17:48:31.500Z,1.27
2022-10-28T17:53:33.744Z,1.75
2022-10-28T17:58:36.064Z,1.23
2022-10-28T18:03:39.198Z,1.40
2022-10-28T18:08:43.221Z,1.77
2022-10-28T18:13:48.954Z,1.30
2022-10-28T18:18:51.819Z,1.83
2022-10-28T18:24:03.496Z,3.58
2022-10-28T18:29:10.073Z,2.60
2022-10-28T18:34:12.375Z,2.13
2022-10-28T18:39:14.465Z,2.50
2022-10-28T18:44:20.071Z,3.10
2022-10-28T18:49:22.117Z,3.45
2022-10-28T18:54:24.199Z,2.80
2022-10-28T18:59:26.266Z,3.40
2022-10-28T19:04:28.384Z,2.20
2022-10-28T19:09:30.456Z,2.53
2022-10-28T19:14:32.521Z,2.17
2022-10-28T19:19:38.414Z,2.78
2022-10-28T19:24:41.569Z,1.48
2022-10-28T19:29:43.756Z,1.60
2022-10-28T19:34:46.078Z,1.40
2022-10-28T19:39:52.929Z,1.58
2022-10-28T19:44:57.688Z,1.45
2022-10-28T19:49:59.892Z,1.70
2022-10-28T19:55:02.020Z,2.10
2022-10-28T20:00:05.609Z,1.55
2022-10-28T20:05:13.574Z,1.77
2022-10-28T20:10:15.714Z,1.60
2022-10-28T20:15:17.745Z,1.70
2022-10-28T20:20:19.876Z,1.80
2022-10-28T20:25:21.934Z,3.10
2022-10-28T20:30:24.048Z,3.78
2022-10-28T20:35:26.108Z,3.60
2022-10-28T20:40:28.289Z,2.20
2022-10-28T20:45:30.332Z,2.17
2022-10-28T20:50:32.390Z,2.13
2022-10-28T20:55:34.469Z,2.20
2022-10-28T21:00:36.611Z,2.17
2022-10-28T21:05:40.706Z,1.48
2022-10-28T21:10:43.472Z,1.40
2022-10-28T21:15:45.962Z,2.42
2022-10-28T21:20:48.034Z,4.05
2022-10-28T21:26:01.497Z,2.10
2022-10-28T21:31:05.921Z,1.85
2022-10-28T21:36:14.292Z,1.80
2022-10-28T21:41:19.054Z,2.00
2022-10-28T21:46:22.241Z,1.70
2022-10-28T21:51:24.308Z,3.92
2022-10-28T21:56:27.615Z,3.13
2022-10-28T22:01:29.847Z,2.17
2022-10-28T22:06:32.044Z,2.17
2022-10-28T22:11:34.124Z,1.83
2022-10-28T22:16:36.653Z,2.00
2022-10-28T22:21:39.334Z,1.98
2022-10-28T22:26:41.510Z,1.60
2022-10-28T22:31:43.711Z,1.90
2022-10-28T22:36:47.697Z,1.38
2022-10-28T22:41:49.847Z,1.30
2022-10-28T22:46:51.981Z,1.95
2022-10-28T22:51:54.239Z,1.40
2022-10-28T22:56:56.453Z,1.48
2022-10-28T23:01:58.726Z,1.40
2022-10-28T23:07:00.925Z,1.52
2022-10-28T23:12:03.099Z,1.40
2022-10-28T23:17:06.127Z,1.20
2022-10-28T23:22:08.272Z,1.17
2022-10-28T23:27:10.422Z,0.90
2022-10-28T23:32:12.580Z,1.45
2022-10-28T23:37:15.419Z,0.93
2022-10-28T23:42:17.684Z,1.17
2022-10-28T23:47:19.926Z,1.50
2022-10-28T23:52:22.233Z,1.17
2022-10-28T23:57:24.382Z,1.15
